createdAt,value
2023-03-29T00:02:02.861Z,101367.22
2023-03-29T00:04:29.661Z,101383.84
2023-03-29T00:06:56.863Z,101387.97
2023-03-29T00:09:23.385Z,101373.28
2023-03-29T00:11:49.920Z,101375.25
2023-03-29T00:14:16.513Z,101379.06
2023-03-29T00:16:44.912Z,101367.56
2023-03-29T00:19:11.635Z,101374.84
2023-03-29T00:21:38.189Z,101382.91
2023-03-29T00:24:05.018Z,101374.31
2023-03-29T00:26:31.573Z,101382.06
2023-03-29T00:28:58.085Z,101372.69
2023-03-29T00:31:24.793Z,101372.97
2023-03-29T00:33:51.394Z,101378.75
2023-03-29T00:36:18.274Z,101373.47
2023-03-29T00:38:44.802Z,101369.72
2023-03-29T00:41:11.872Z,101382.06
2023-03-29T00:44:01.621Z,101380.06
2023-03-29T00:46:31.880Z,101389.25
2023-03-29T00:49:12.878Z,101378.03
2023-03-29T00:51:41.464Z,101371.28
2023-03-29T00:54:14.936Z,101361.59
2023-03-29T00:56:46.112Z,101364.88
2023-03-29T00:59:18.793Z,101360.59
2023-03-29T01:02:05.688Z,101363.53
2023-03-29T01:04:42.665Z,101350.00
2023-03-29T01:07:26.133Z,101333.31
2023-03-29T01:10:04.627Z,101327.53
2023-03-29T01:12:37.825Z,101318.28
2023-03-29T01:15:14.011Z,101314.84
2023-03-29T01:17:43.408Z,101301.16
2023-03-29T01:20:20.216Z,101282.88
2023-03-29T01:22:52.487Z,101272.31
2023-03-29T01:25:26.218Z,101257.44
2023-03-29T01:28:02.961Z,101251.16
2023-03-29T01:30:52.039Z,101241.78
2023-03-29T01:33:23.628Z,101239.16
2023-03-29T01:36:16.581Z,101241.63
2023-03-29T01:39:03.606Z,101236.34
2023-03-29T01:41:48.232Z,101240.28
2023-03-29T01:44:44.148Z,101225.13
2023-03-29T01:47:23.453Z,101213.59
2023-03-29T01:49:57.545Z,101206.88
2023-03-29T01:52:32.070Z,101212.47
2023-03-29T01:55:08.867Z,101199.25
2023-03-29T01:57:39.763Z,101203.34
2023-03-29T02:00:11.092Z,101194.59
2023-03-29T02:02:41.725Z,101181.97
2023-03-29T02:05:10.115Z,101180.53
2023-03-29T02:07:38.390Z,101182.75
2023-03-29T02:10:07.225Z,101192.16
2023-03-29T02:12:34.096Z,101188.06
2023-03-29T02:15:04.694Z,101172.75
2023-03-29T02:17:31.264Z,101183.63
2023-03-29T02:20:08.063Z,101183.31
2023-03-29T02:22:44.022Z,101190.09
2023-03-29T02:25:10.745Z,101190.88
2023-03-29T02:27:38.095Z,101192.41
2023-03-29T02:30:10.867Z,101191.06
2023-03-29T02:33:02.006Z,101194.19
2023-03-29T02:35:36.476Z,101192.41
2023-03-29T02:38:06.420Z,101181.84
2023-03-29T02:40:34.882Z,101182.00
2023-03-29T02:43:03.232Z,101178.06
2023-03-29T02:45:30.945Z,101178.56
2023-03-29T02:48:02.084Z,101169.00
2023-03-29T02:50:32.358Z,101158.63
2023-03-29T02:53:04.742Z,101163.25
2023-03-29T02:55:34.977Z,101157.97
2023-03-29T02:58:08.076Z,101161.28
2023-03-29T03:00:42.171Z,101155.19
2023-03-29T03:03:10.318Z,101157.81
2023-03-29T03:05:38.262Z,101149.91
2023-03-29T03:08:07.271Z,101159.31
2023-03-29T03:10:35.101Z,101156.69
2023-03-29T03:13:02.133Z,101152.03
2023-03-29T03:15:28.706Z,101152.88
2023-03-29T03:17:56.221Z,101150.25
2023-03-29T03:20:22.987Z,101145.63
2023-03-29T03:22:49.600Z,101142.34
2023-03-29T03:25:19.509Z,101149.25
2023-03-29T03:27:46.412Z,101137.06
2023-03-29T03:30:13.242Z,101128.47
2023-03-29T03:32:39.823Z,101123.22
2023-03-29T03:35:07.558Z,101124.22
2023-03-29T03:37:34.296Z,101107.72
2023-03-29T03:40:00.838Z,101112.84
2023-03-29T03:42:28.758Z,101103.97
2023-03-29T03:44:55.781Z,101108.91
2023-03-29T03:47:22.815Z,101104.44
2023-03-29T03:49:49.355Z,101092.25
2023-03-29T03:52:16.414Z,101091.75
2023-03-29T03:54:43.192Z,101095.22
2023-03-29T03:57:09.789Z,101093.41
2023-03-29T03:59:36.989Z,101089.94
2023-03-29T04:02:03.598Z,101079.88
2023-03-29T04:04:30.895Z,101076.25
2023-03-29T04:07:02.771Z,101072.81
2023-03-29T04:09:34.046Z,101066.38
2023-03-29T04:12:01.618Z,101069.84
2023-03-29T04:14:28.283Z,101058.47
2023-03-29T04:16:55.311Z,101062.44
2023-03-29T04:19:22.017Z,101046.44
2023-03-29T04:21:49.613Z,101053.66
2023-03-29T04:24:16.361Z,101054.16
2023-03-29T04:26:43.903Z,101046.91
2023-03-29T04:29:10.993Z,101049.69
2023-03-29T04:31:37.774Z,101046.06
2023-03-29T04:34:04.537Z,101043.25
2023-03-29T04:36:31.157Z,101051.81
2023-03-29T04:38:58.667Z,101049.00
2023-03-29T04:41:25.402Z,101050.03
2023-03-29T04:43:52.203Z,101039.47
2023-03-29T04:46:18.806Z,101041.94
2023-03-29T04:48:45.333Z,101034.84
2023-03-29T04:51:12.778Z,101046.53
2023-03-29T04:53:39.358Z,101051.97
2023-03-29T04:56:06.695Z,101051.19
2023-03-29T04:58:33.240Z,101051.19
2023-03-29T05:00:59.976Z,101045.22
2023-03-29T05:03:27.082Z,101041.59
2023-03-29T05:05:53.880Z,101037.50
2023-03-29T05:08:20.674Z,101042.59
2023-03-29T05:10:49.852Z,101047.03
2023-03-29T05:13:16.858Z,101040.63
2023-03-29T05:15:43.393Z,101045.06
2023-03-29T05:18:10.685Z,101035.34
2023-03-29T05:20:38.097Z,101020.97
2023-03-29T05:23:04.597Z,101022.63
2023-03-29T05:25:31.183Z,101009.41
2023-03-29T05:27:58.824Z,100999.53
2023-03-29T05:30:25.648Z,101001.19
2023-03-29T05:32:52.880Z,100990.47
2023-03-29T05:35:19.508Z,100987.66
2023-03-29T05:37:47.374Z,100980.56
2023-03-29T05:40:13.942Z,100970.03
2023-03-29T05:42:40.466Z,100966.84
2023-03-29T05:45:07.768Z,100955.13
2023-03-29T05:47:34.407Z,100954.94
2023-03-29T05:50:01.049Z,100950.31
2023-03-29T05:52:27.621Z,100951.84
2023-03-29T05:54:54.216Z,100945.38
2023-03-29T05:57:21.538Z,100936.31
2023-03-29T05:59:48.153Z,100936.31
2023-03-29T06:02:16.003Z,100933.50
2023-03-29T06:04:43.765Z,100930.50
2023-03-29T06:07:12.563Z,100928.88
2023-03-29T06:09:39.814Z,100930.34
2023-03-29T06:12:07.410Z,100938.06
2023-03-29T06:14:34.166Z,100930.63
2023-03-29T06:17:01.800Z,100920.91
2023-03-29T06:19:28.437Z,100924.19
2023-03-29T06:21:55.009Z,100914.44
2023-03-29T06:24:21.589Z,100912.28
2023-03-29T06:26:48.149Z,100911.94
2023-03-29T06:29:14.840Z,100915.69
2023-03-29T06:31:42.252Z,100920.44
2023-03-29T06:34:08.891Z,100919.09
2023-03-29T06:36:35.540Z,100914.47
2023-03-29T06:39:06.536Z,100932.59
2023-03-29T06:41:33.046Z,100926.13
2023-03-29T06:43:59.710Z,100918.69
2023-03-29T06:46:27.133Z,100917.88
2023-03-29T06:48:53.779Z,100923.47
2023-03-29T06:51:23.110Z,100927.19
2023-03-29T06:53:49.858Z,100924.19
2023-03-29T06:56:17.671Z,100934.06
2023-03-29T06:58:45.049Z,100938.44
2023-03-29T07:01:11.880Z,100938.75
2023-03-29T07:03:39.432Z,100942.78
2023-03-29T07:06:10.167Z,100949.47
2023-03-29T07:08:43.390Z,100957.78
2023-03-29T07:11:12.655Z,100965.09
2023-03-29T07:13:43.099Z,100975.22
2023-03-29T07:16:14.504Z,100967.41
2023-03-29T07:18:42.832Z,100976.25
2023-03-29T07:21:11.716Z,100971.13
2023-03-29T07:23:39.089Z,100996.06
2023-03-29T07:26:10.454Z,100997.25
2023-03-29T07:28:40.094Z,100998.78
2023-03-29T07:31:10.840Z,101007.19
2023-03-29T07:33:38.270Z,101008.56
2023-03-29T07:36:06.096Z,101012.13
2023-03-29T07:38:32.896Z,101009.66
2023-03-29T07:40:59.698Z,101004.53
2023-03-29T07:43:26.441Z,100992.59
2023-03-29T07:45:53.150Z,100989.50
2023-03-29T07:48:19.712Z,100975.94
2023-03-29T07:50:46.381Z,100971.81
2023-03-29T07:53:13.140Z,100972.97
2023-03-29T07:55:47.349Z,100978.63
2023-03-29T07:58:14.717Z,100978.63
2023-03-29T08:00:41.667Z,100978.97
2023-03-29T08:03:11.207Z,100980.75
2023-03-29T08:05:41.660Z,100989.03
2023-03-29T08:08:09.814Z,100986.03
2023-03-29T08:10:39.184Z,100971.41
2023-03-29T08:13:08.457Z,100963.59
2023-03-29T08:15:39.948Z,100965.22
2023-03-29T08:18:10.089Z,100975.13
2023-03-29T08:20:36.691Z,100989.66
2023-03-29T08:23:03.260Z,100995.25
2023-03-29T08:25:29.951Z,101011.16
2023-03-29T08:27:56.662Z,101006.13
2023-03-29T08:30:23.240Z,101008.88
2023-03-29T08:32:51.659Z,101004.59
2023-03-29T08:35:20.713Z,100997.91
2023-03-29T08:37:47.326Z,100999.81
2023-03-29T08:40:21.680Z,101007.22
2023-03-29T08:43:24.031Z,100995.97
2023-03-29T08:46:18.462Z,101006.56
2023-03-29T08:48:51.016Z,101002.66
2023-03-29T08:51:26.070Z,101007.56
2023-03-29T08:53:56.829Z,101007.75
2023-03-29T08:56:27.557Z,101026.38
2023-03-29T08:58:56.398Z,101030.63
2023-03-29T09:01:24.372Z,101029.31
2023-03-29T09:04:13.986Z,101040.09
2023-03-29T09:06:40.852Z,101036.81
2023-03-29T09:09:14.774Z,101039.69
2023-03-29T09:11:56.606Z,101041.78
2023-03-29T09:14:29.077Z,101071.31
2023-03-29T09:16:58.272Z,101079.88
2023-03-29T09:20:02.830Z,101098.47
2023-03-29T09:22:47.927Z,101097.31
2023-03-29T09:25:50.746Z,101088.88
2023-03-29T09:28:25.364Z,101079.47
2023-03-29T09:31:02.645Z,101084.81
2023-03-29T09:33:42.606Z,101091.53
2023-03-29T09:36:11.863Z,101069.09
2023-03-29T09:38:43.448Z,101067.59
2023-03-29T09:41:34.980Z,101055.50
2023-03-29T09:44:12.746Z,101041.13
2023-03-29T09:46:53.862Z,101038.56
2023-03-29T09:49:29.713Z,101051.25
2023-03-29T09:52:01.430Z,101053.91
2023-03-29T09:54:28.329Z,101064.09
2023-03-29T09:56:55.059Z,101062.69
2023-03-29T09:59:21.883Z,101067.34
2023-03-29T10:01:48.486Z,101051.84
2023-03-29T10:04:16.675Z,101042.25
2023-03-29T10:06:50.300Z,101047.41
2023-03-29T10:09:21.005Z,101047.69
2023-03-29T10:11:52.446Z,101038.75
2023-03-29T10:14:40.955Z,101046.56
2023-03-29T10:17:40.633Z,101041.13
2023-03-29T10:20:13.141Z,101044.16
2023-03-29T10:22:48.676Z,101038.84
2023-03-29T10:25:18.107Z,101041.59
2023-03-29T10:27:47.277Z,101041.41
2023-03-29T10:30:25.416Z,101051.25
2023-03-29T10:32:58.166Z,101064.16
2023-03-29T10:35:40.363Z,101070.72
2023-03-29T10:38:12.510Z,101078.13
2023-03-29T10:40:43.485Z,101073.59
2023-03-29T10:43:27.189Z,101095.13
2023-03-29T10:45:56.240Z,101100.03
2023-03-29T10:48:29.805Z,101107.41
2023-03-29T10:51:01.762Z,101099.78
2023-03-29T10:53:32.657Z,101101.88
2023-03-29T10:56:11.292Z,101112.50
2023-03-29T10:58:56.285Z,101110.06
2023-03-29T11:02:15.225Z,101109.22
2023-03-29T11:05:01.089Z,101109.47
2023-03-29T11:07:35.654Z,101120.47
2023-03-29T11:10:18.045Z,101110.66
2023-03-29T11:13:01.913Z,101102.63
2023-03-29T11:15:43.462Z,101094.41
2023-03-29T11:18:30.550Z,101110.66
2023-03-29T11:21:21.184Z,101124.81
2023-03-29T11:24:02.773Z,101145.69
2023-03-29T11:26:36.959Z,101165.31
2023-03-29T11:29:18.547Z,101175.75
2023-03-29T11:32:03.787Z,101163.91
2023-03-29T11:34:52.639Z,101176.13
2023-03-29T11:37:28.613Z,101198.97
2023-03-29T11:40:36.112Z,101210.38
2023-03-29T11:43:11.268Z,101214.09
2023-03-29T11:46:06.507Z,101213.19
2023-03-29T11:48:40.255Z,101203.06
2023-03-29T11:51:25.874Z,101211.59
2023-03-29T11:54:13.569Z,101194.53
2023-03-29T11:56:46.941Z,101194.25
2023-03-29T11:59:24.859Z,101194.09
2023-03-29T12:01:57.489Z,101189.38
2023-03-29T12:04:32.367Z,101188.53
2023-03-29T12:07:09.291Z,101185.94
2023-03-29T12:09:50.321Z,101192.00
2023-03-29T12:12:25.054Z,101179.88
2023-03-29T12:15:20.235Z,101180.41
2023-03-29T12:18:01.243Z,101183.34
2023-03-29T12:20:32.335Z,101172.69
2023-03-29T12:22:59.239Z,101152.47
2023-03-29T12:25:41.655Z,101146.56
2023-03-29T12:28:33.227Z,101159.34
2023-03-29T12:31:21.856Z,101154.78
2023-03-29T12:34:12.341Z,101155.94
2023-03-29T12:37:00.757Z,101145.22
2023-03-29T12:39:29.744Z,101146.78
2023-03-29T12:42:13.459Z,101133.13
2023-03-29T12:44:43.908Z,101130.25
2023-03-29T12:47:20.444Z,101137.03
2023-03-29T12:49:47.665Z,101134.75
2023-03-29T12:52:22.174Z,101127.50
2023-03-29T12:54:57.875Z,101137.34
2023-03-29T12:57:40.109Z,101140.34
2023-03-29T13:00:45.594Z,101143.63
2023-03-29T13:03:39.843Z,101136.56
2023-03-29T13:06:09.460Z,101129.09
2023-03-29T13:08:42.370Z,101131.25
2023-03-29T13:11:27.548Z,101124.00
2023-03-29T13:13:54.143Z,101108.41
2023-03-29T13:16:30.579Z,101104.41
2023-03-29T13:19:21.560Z,101097.91
2023-03-29T13:22:21.710Z,101092.03
2023-03-29T13:25:02.396Z,101080.84
2023-03-29T13:28:02.382Z,101074.47
2023-03-29T13:30:53.030Z,101070.22
2023-03-29T13:33:37.049Z,101063.78
2023-03-29T13:36:16.604Z,101048.16
2023-03-29T13:38:51.691Z,101036.97
2023-03-29T13:41:39.504Z,101042.97
2023-03-29T13:44:33.934Z,101041.59
2023-03-29T13:47:32.774Z,101034.25
2023-03-29T13:50:05.269Z,101021.44
2023-03-29T13:52:40.191Z,101026.75
2023-03-29T13:55:24.602Z,101014.03
2023-03-29T13:57:57.495Z,101001.75
2023-03-29T14:00:36.775Z,101014.19
2023-03-29T14:03:09.621Z,101011.19
2023-03-29T14:05:39.869Z,101008.63
2023-03-29T14:08:23.419Z,100993.28
2023-03-29T14:10:50.323Z,100998.56
2023-03-29T14:13:19.380Z,100990.53
2023-03-29T14:15:51.656Z,100979.31
2023-03-29T14:18:22.265Z,100964.97
2023-03-29T14:20:55.538Z,100963.19
2023-03-29T14:23:28.499Z,100961.34
2023-03-29T14:25:55.143Z,100954.81
2023-03-29T14:28:27.884Z,100952.97
2023-03-29T14:30:56.110Z,100946.22
2023-03-29T14:33:38.097Z,100937.81
2023-03-29T14:36:05.873Z,100932.41
2023-03-29T14:38:33.022Z,100918.13
2023-03-29T14:41:01.510Z,100914.53
2023-03-29T14:43:31.295Z,100919.19
2023-03-29T14:46:00.447Z,100900.38
2023-03-29T14:48:28.065Z,100897.41
2023-03-29T14:50:54.801Z,100889.19
2023-03-29T14:53:23.605Z,100886.91
2023-03-29T14:55:52.381Z,100890.50
2023-03-29T14:58:31.901Z,100887.19
2023-03-29T15:01:13.689Z,100888.34
2023-03-29T15:04:02.439Z,100889.50
2023-03-29T15:06:30.234Z,100871.38
2023-03-29T15:09:05.134Z,100867.34
2023-03-29T15:11:34.421Z,100863.56
2023-03-29T15:14:03.070Z,100856.22
2023-03-29T15:16:30.812Z,100847.84
2023-03-29T15:18:58.588Z,100849.84
2023-03-29T15:21:33.149Z,100850.06
2023-03-29T15:24:02.262Z,100828.69
2023-03-29T15:26:34.716Z,100823.69
2023-03-29T15:29:23.674Z,100808.75
2023-03-29T15:31:57.683Z,100791.00
2023-03-29T15:34:29.344Z,100800.28
2023-03-29T15:36:57.929Z,100792.72
2023-03-29T15:39:25.292Z,100792.81
2023-03-29T15:41:53.251Z,100777.22
2023-03-29T15:44:27.955Z,100768.16
2023-03-29T15:46:55.654Z,100765.34
2023-03-29T15:49:22.264Z,100762.78
2023-03-29T15:51:48.906Z,100758.13
2023-03-29T15:54:15.702Z,100740.31
2023-03-29T15:56:50.207Z,100741.81
2023-03-29T15:59:18.160Z,100730.09
2023-03-29T16:01:45.085Z,100731.59
2023-03-29T16:04:17.131Z,100727.50
2023-03-29T16:06:48.628Z,100723.22
2023-03-29T16:09:17.148Z,100722.63
2023-03-29T16:11:44.988Z,100710.31
2023-03-29T16:14:27.400Z,100700.06
2023-03-29T16:17:00.851Z,100706.69
2023-03-29T16:19:30.080Z,100695.41
2023-03-29T16:21:57.618Z,100692.75
2023-03-29T16:24:29.932Z,100684.38
2023-03-29T16:26:57.801Z,100675.19
2023-03-29T16:29:25.338Z,100671.13
2023-03-29T16:31:53.194Z,100673.56
2023-03-29T16:34:20.615Z,100667.97
2023-03-29T16:36:49.123Z,100673.31
2023-03-29T16:39:16.689Z,100645.69
2023-03-29T16:41:43.305Z,100638.56
2023-03-29T16:44:16.175Z,100642.28
2023-03-29T16:46:42.862Z,100642.53
2023-03-29T16:49:17.982Z,100637.28
2023-03-29T16:51:46.861Z,100626.47
2023-03-29T16:54:14.287Z,100609.00
2023-03-29T16:56:41.336Z,100615.84
2023-03-29T16:59:09.159Z,100612.81
2023-03-29T17:01:36.470Z,100614.53
2023-03-29T17:04:04.124Z,100617.06
2023-03-29T17:06:32.545Z,100604.75
2023-03-29T17:08:59.382Z,100604.16
2023-03-29T17:11:26.911Z,100604.16
2023-03-29T17:13:54.005Z,100611.59
2023-03-29T17:16:21.890Z,100611.13
2023-03-29T17:18:48.498Z,100611.22
2023-03-29T17:21:15.513Z,100609.00
2023-03-29T17:23:42.127Z,100602.47
2023-03-29T17:26:08.723Z,100598.19
2023-03-29T17:28:35.880Z,100596.81
2023-03-29T17:31:09.697Z,100591.75
2023-03-29T17:33:36.672Z,100589.75
2023-03-29T17:36:05.175Z,100583.59
2023-03-29T17:38:34.238Z,100582.06
2023-03-29T17:41:01.561Z,100573.56
2023-03-29T17:43:28.914Z,100574.16
2023-03-29T17:45:55.651Z,100567.41
2023-03-29T17:48:24.029Z,100567.78
2023-03-29T17:50:50.744Z,100576.97
2023-03-29T17:53:17.281Z,100565.56
2023-03-29T17:55:43.821Z,100566.59
2023-03-29T17:58:10.373Z,100562.16
2023-03-29T18:00:37.313Z,100547.28
2023-03-29T18:03:03.970Z,100548.06
2023-03-29T18:05:30.650Z,100533.81
2023-03-29T18:07:57.421Z,100528.09
2023-03-29T18:10:23.958Z,100527.06
2023-03-29T18:12:50.608Z,100522.78
2023-03-29T18:15:17.511Z,100515.69
2023-03-29T18:17:44.677Z,100519.66
2023-03-29T18:20:12.041Z,100519.28
2023-03-29T18:22:39.786Z,100519.09
2023-03-29T18:25:07.481Z,100510.97
2023-03-29T18:27:34.062Z,100509.56
2023-03-29T18:30:00.651Z,100503.88
2023-03-29T18:32:27.267Z,100508.59
2023-03-29T18:34:53.912Z,100492.91
2023-03-29T18:37:21.094Z,100494.22
2023-03-29T18:39:48.053Z,100482.88
2023-03-29T18:42:14.865Z,100455.16
2023-03-29T18:44:42.238Z,100452.63
2023-03-29T18:47:09.020Z,100431.16
2023-03-29T18:49:36.985Z,100421.81
2023-03-29T18:52:04.739Z,100403.88
2023-03-29T18:54:31.452Z,100396.91
2023-03-29T18:57:00.673Z,100384.88
2023-03-29T18:59:27.288Z,100386.09
2023-03-29T19:01:53.895Z,100373.69
2023-03-29T19:04:20.472Z,100365.94
2023-03-29T19:06:47.532Z,100361.00
2023-03-29T19:09:14.384Z,100351.34
2023-03-29T19:11:41.110Z,100343.00
2023-03-29T19:14:09.312Z,100329.94
2023-03-29T19:16:36.170Z,100316.69
2023-03-29T19:19:02.803Z,100300.28
2023-03-29T19:21:31.654Z,100288.25
2023-03-29T19:24:00.635Z,100286.19
2023-03-29T19:26:29.533Z,100278.38
2023-03-29T19:28:56.313Z,100279.91
2023-03-29T19:31:23.047Z,100272.44
2023-03-29T19:33:49.930Z,100286.88
2023-03-29T19:36:16.510Z,100294.78
2023-03-29T19:38:43.098Z,100291.88
2023-03-29T19:41:09.666Z,100290.63
2023-03-29T19:43:36.390Z,100285.53
2023-03-29T19:46:08.302Z,100282.84
2023-03-29T19:48:35.018Z,100279.97
2023-03-29T19:51:03.117Z,100266.09
2023-03-29T19:53:31.150Z,100276.53
2023-03-29T19:55:58.286Z,100273.84
2023-03-29T19:58:25.456Z,100265.97
2023-03-29T20:00:53.234Z,100265.13
2023-03-29T20:03:21.836Z,100249.25
2023-03-29T20:05:48.533Z,100259.28
2023-03-29T20:08:15.092Z,100251.69
2023-03-29T20:10:42.481Z,100258.69
2023-03-29T20:13:09.195Z,100253.22
2023-03-29T20:15:35.958Z,100242.44
2023-03-29T20:18:02.548Z,100234.25
2023-03-29T20:20:30.049Z,100244.53
2023-03-29T20:23:04.712Z,100235.28
2023-03-29T20:25:31.938Z,100238.03
2023-03-29T20:27:59.661Z,100238.69
2023-03-29T20:30:26.464Z,100224.06
2023-03-29T20:32:53.347Z,100220.16
2023-03-29T20:35:19.984Z,100213.88
2023-03-29T20:37:46.608Z,100236.19
2023-03-29T20:40:15.649Z,100226.88
2023-03-29T20:42:42.439Z,100239.50
2023-03-29T20:45:18.653Z,100240.22
2023-03-29T20:47:50.600Z,100261.97
2023-03-29T20:50:20.459Z,100272.06
2023-03-29T20:52:47.057Z,100295.75
2023-03-29T20:55:22.256Z,100305.56
2023-03-29T20:57:51.197Z,100316.00
2023-03-29T21:00:19.801Z,100331.13
2023-03-29T21:02:47.132Z,100335.06
2023-03-29T21:05:13.919Z,100341.41
2023-03-29T21:07:40.557Z,100361.31
2023-03-29T21:10:07.572Z,100361.53
2023-03-29T21:12:34.096Z,100365.50
2023-03-29T21:15:02.399Z,100366.31
2023-03-29T21:17:28.979Z,100369.53
2023-03-29T21:19:55.694Z,100370.66
2023-03-29T21:22:23.258Z,100365.66
2023-03-29T21:24:49.800Z,100371.72
2023-03-29T21:27:16.430Z,100387.78
2023-03-29T21:29:42.971Z,100403.44
2023-03-29T21:32:10.854Z,100413.47
2023-03-29T21:34:37.492Z,100421.69
2023-03-29T21:37:04.003Z,100425.34
2023-03-29T21:39:30.790Z,100428.09
2023-03-29T21:41:57.368Z,100428.91
2023-03-29T21:44:23.933Z,100429.06
2023-03-29T21:46:50.459Z,100440.50
2023-03-29T21:49:17.217Z,100438.06
2023-03-29T21:51:43.946Z,100439.78
2023-03-29T21:54:11.415Z,100447.63
2023-03-29T21:56:38.169Z,100443.78
2023-03-29T21:59:04.892Z,100442.16
2023-03-29T22:01:31.563Z,100447.69
2023-03-29T22:03:58.224Z,100439.66
2023-03-29T22:06:24.863Z,100447.63
2023-03-29T22:08:53.115Z,100440.22
2023-03-29T22:11:20.155Z,100449.53
2023-03-29T22:13:46.780Z,100453.03
2023-03-29T22:16:14.116Z,100453.97
2023-03-29T22:18:43.853Z,100458.13
2023-03-29T22:21:17.709Z,100464.19
2023-03-29T22:23:46.670Z,100478.00
2023-03-29T22:26:16.202Z,100481.94
2023-03-29T22:28:43.525Z,100482.03
2023-03-29T22:31:12.848Z,100488.09
2023-03-29T22:33:40.696Z,100492.53
2023-03-29T22:36:29.062Z,100486.59
2023-03-29T22:38:55.646Z,100489.06
2023-03-29T22:41:24.013Z,100502.91
2023-03-29T22:43:52.510Z,100492.38
2023-03-29T22:46:19.756Z,100488.34
2023-03-29T22:48:46.850Z,100491.78
2023-03-29T22:51:13.542Z,100491.19
2023-03-29T22:53:40.125Z,100499.16
2023-03-29T22:56:07.876Z,100502.75
2023-03-29T22:58:34.808Z,100497.16
2023-03-29T23:01:01.497Z,100512.66
2023-03-29T23:03:28.312Z,100527.13
2023-03-29T23:05:57.146Z,100523.88
2023-03-29T23:08:24.871Z,100512.56
2023-03-29T23:10:52.428Z,100512.19
2023-03-29T23:13:33.420Z,100510.63
2023-03-29T23:16:01.885Z,100491.81
2023-03-29T23:18:30.300Z,100483.03
2023-03-29T23:20:58.326Z,100472.66
2023-03-29T23:23:27.058Z,100468.03
2023-03-29T23:25:55.738Z,100473.28
2023-03-29T23:28:24.945Z,100469.34
2023-03-29T23:31:06.883Z,100475.03
2023-03-29T23:33:35.775Z,100461.03
2023-03-29T23:36:04.846Z,100461.53
2023-03-29T23:38:34.166Z,100473.38
2023-03-29T23:41:02.866Z,100473.16
2023-03-29T23:43:32.835Z,100474.06
2023-03-29T23:46:01.733Z,100484.81
2023-03-29T23:48:28.836Z,100481.31
2023-03-29T23:50:58.990Z,100476.00
2023-03-29T23:53:28.538Z,100473.50
2023-03-29T23:56:00.420Z,100470.63
2023-03-29T23:58:34.757Z,100455.09
